createdAt,value
2023-02-19T00:02:41.511Z,11.71
2023-02-19T00:05:42.944Z,11.64
2023-02-19T00:08:44.600Z,11.70
2023-02-19T00:11:47.545Z,11.75
2023-02-19T00:14:48.968Z,11.68
2023-02-19T00:17:50.386Z,11.84
2023-02-19T00:20:51.824Z,11.51
2023-02-19T00:23:55.957Z,11.48
2023-02-19T00:26:57.510Z,11.52
2023-02-19T00:29:59.051Z,11.48
2023-02-19T00:33:00.642Z,11.54
2023-02-19T00:36:04.023Z,11.38
2023-02-19T00:39:07.896Z,11.42
2023-02-19T00:42:09.391Z,11.49
2023-02-19T00:45:10.920Z,11.52
2023-02-19T00:48:12.464Z,11.51
2023-02-19T00:51:14.860Z,11.59
2023-02-19T00:54:16.909Z,11.35
2023-02-19T00:57:18.498Z,11.53
2023-02-19T01:00:20.124Z,11.54
2023-02-19T01:03:24.619Z,11.47
2023-02-19T01:06:26.254Z,11.36
2023-02-19T01:09:27.762Z,11.51
2023-02-19T01:12:29.608Z,11.53
2023-02-19T01:15:32.977Z,11.65
2023-02-19T01:18:35.471Z,11.39
2023-02-19T01:21:37.233Z,11.21
2023-02-19T01:24:38.837Z,11.37
2023-02-19T01:27:40.308Z,11.03
2023-02-19T01:30:41.786Z,11.05
2023-02-19T01:33:48.536Z,11.21
2023-02-19T01:36:50.056Z,11.12
2023-02-19T01:39:51.545Z,11.36
2023-02-19T01:42:53.052Z,10.89
2023-02-19T01:45:55.344Z,11.13
2023-02-19T01:49:02.278Z,10.96
2023-02-19T01:52:12.945Z,11.04
2023-02-19T01:55:14.546Z,11.06
2023-02-19T01:58:16.584Z,11.04
2023-02-19T02:01:18.151Z,11.21
2023-02-19T02:04:19.809Z,11.13
2023-02-19T02:07:42.111Z,11.05
2023-02-19T02:10:44.207Z,11.27
2023-02-19T02:13:46.251Z,11.06
2023-02-19T02:17:20.223Z,11.24
2023-02-19T02:20:51.892Z,11.35
2023-02-19T02:24:02.504Z,11.16
2023-02-19T02:27:42.389Z,11.07
2023-02-19T02:30:48.709Z,10.62
2023-02-19T02:33:59.621Z,10.14
2023-02-19T02:37:02.585Z,10.48
2023-02-19T02:40:08.154Z,10.46
2023-02-19T02:43:09.913Z,10.16
2023-02-19T02:46:13.218Z,10.09
2023-02-19T02:49:22.465Z,10.16
2023-02-19T02:52:44.092Z,10.20
2023-02-19T02:55:49.438Z,10.26
2023-02-19T02:58:53.282Z,10.33
2023-02-19T03:02:11.289Z,10.34
2023-02-19T03:05:37.137Z,10.38
2023-02-19T03:08:58.841Z,10.37
2023-02-19T03:12:22.001Z,10.16
2023-02-19T03:15:47.322Z,10.25
2023-02-19T03:19:12.533Z,10.33
2023-02-19T03:22:19.976Z,10.43
2023-02-19T03:25:49.091Z,10.38
2023-02-19T03:29:16.805Z,10.44
2023-02-19T03:32:49.469Z,10.35
2023-02-19T03:36:02.587Z,10.28
2023-02-19T03:39:08.507Z,10.34
2023-02-19T03:42:21.797Z,10.32
2023-02-19T03:45:36.280Z,10.43
2023-02-19T03:49:06.140Z,10.35
2023-02-19T03:52:18.482Z,10.35
2023-02-19T03:55:41.508Z,10.40
2023-02-19T03:58:57.571Z,10.14
2023-02-19T04:02:37.367Z,10.09
2023-02-19T04:05:45.525Z,10.09
2023-02-19T04:08:52.544Z,10.08
2023-02-19T04:11:55.145Z,10.17
2023-02-19T04:15:04.973Z,10.13
2023-02-19T04:18:12.506Z,9.98
2023-02-19T04:21:15.527Z,10.22
2023-02-19T04:24:23.257Z,10.25
2023-02-19T04:27:24.769Z,10.30
2023-02-19T04:30:26.494Z,10.26
2023-02-19T04:33:27.981Z,10.11
2023-02-19T04:36:30.766Z,10.04
2023-02-19T04:39:32.682Z,10.24
2023-02-19T04:42:34.157Z,10.21
2023-02-19T04:45:37.829Z,10.17
2023-02-19T04:48:39.434Z,10.33
2023-02-19T04:51:41.127Z,10.10
2023-02-19T04:54:42.644Z,10.06
2023-02-19T04:57:44.189Z,10.12
2023-02-19T05:00:45.720Z,10.00
2023-02-19T05:03:47.249Z,10.15
2023-02-19T05:06:48.735Z,10.01
2023-02-19T05:09:50.245Z,10.10
2023-02-19T05:12:52.259Z,10.09
2023-02-19T05:16:03.068Z,9.82
2023-02-19T05:19:04.562Z,9.63
2023-02-19T05:22:06.092Z,9.92
2023-02-19T05:25:07.691Z,10.05
2023-02-19T05:28:18.246Z,10.16
2023-02-19T05:31:20.834Z,9.95
2023-02-19T05:34:22.392Z,10.00
2023-02-19T05:37:23.885Z,9.90
2023-02-19T05:40:25.391Z,10.09
2023-02-19T05:43:26.917Z,9.96
2023-02-19T05:46:32.439Z,9.75
2023-02-19T05:49:34.070Z,10.06
2023-02-19T05:52:35.587Z,10.08
2023-02-19T05:55:37.135Z,10.08
2023-02-19T05:58:38.636Z,10.21
2023-02-19T06:01:40.147Z,9.94
2023-02-19T06:04:41.691Z,9.96
2023-02-19T06:07:43.297Z,9.78
2023-02-19T06:10:44.806Z,9.84
2023-02-19T06:13:46.739Z,9.73
2023-02-19T06:16:48.222Z,9.77
2023-02-19T06:19:49.667Z,9.73
2023-02-19T06:22:51.771Z,9.75
2023-02-19T06:25:53.196Z,9.74
2023-02-19T06:28:54.743Z,9.72
2023-02-19T06:31:56.243Z,9.71
2023-02-19T06:34:57.712Z,9.75
2023-02-19T06:37:59.114Z,9.39
2023-02-19T06:41:05.041Z,9.56
2023-02-19T06:44:06.520Z,9.60
2023-02-19T06:47:07.952Z,9.74
2023-02-19T06:50:09.372Z,9.65
2023-02-19T06:53:11.657Z,9.52
2023-02-19T06:56:26.696Z,9.69
2023-02-19T06:59:28.146Z,9.69
2023-02-19T07:02:29.593Z,9.60
2023-02-19T07:05:31.064Z,9.53
2023-02-19T07:08:32.493Z,9.84
2023-02-19T07:11:35.484Z,9.76
2023-02-19T07:14:36.932Z,9.65
2023-02-19T07:17:38.371Z,9.84
2023-02-19T07:20:39.808Z,9.56
2023-02-19T07:23:42.326Z,9.47
2023-02-19T07:26:43.954Z,9.77
2023-02-19T07:29:45.383Z,9.62
2023-02-19T07:32:46.869Z,9.34
2023-02-19T07:35:49.819Z,9.61
2023-02-19T07:38:58.822Z,9.33
2023-02-19T07:42:00.681Z,9.29
2023-02-19T07:45:02.214Z,9.45
2023-02-19T07:48:03.847Z,9.71
2023-02-19T07:51:07.283Z,9.57
2023-02-19T07:54:08.725Z,9.81
2023-02-19T07:57:10.147Z,9.63
2023-02-19T08:00:12.071Z,9.65
2023-02-19T08:03:16.526Z,9.70
2023-02-19T08:06:17.993Z,9.56
2023-02-19T08:09:19.394Z,9.65
2023-02-19T08:12:39.432Z,9.78
2023-02-19T08:15:40.818Z,9.71
2023-02-19T08:18:42.351Z,9.63
2023-02-19T08:21:43.855Z,9.76
2023-02-19T08:24:45.281Z,9.57
2023-02-19T08:27:46.674Z,9.77
2023-02-19T08:30:48.856Z,9.69
2023-02-19T08:33:50.472Z,9.76
2023-02-19T08:36:52.078Z,9.65
2023-02-19T08:39:53.491Z,9.40
2023-02-19T08:42:54.928Z,9.65
2023-02-19T08:45:56.504Z,9.95
2023-02-19T08:48:58.004Z,9.72
2023-02-19T08:51:59.449Z,9.71
2023-02-19T08:55:01.754Z,9.92
2023-02-19T08:58:03.413Z,9.83
2023-02-19T09:01:17.709Z,10.01
2023-02-19T09:04:19.177Z,9.82
2023-02-19T09:07:20.591Z,9.61
2023-02-19T09:10:22.107Z,9.70
2023-02-19T09:13:23.585Z,9.97
2023-02-19T09:16:25.062Z,10.11
2023-02-19T09:19:27.566Z,9.99
2023-02-19T09:22:29.008Z,10.09
2023-02-19T09:25:30.406Z,10.08
2023-02-19T09:28:32.249Z,9.94
2023-02-19T09:31:35.224Z,9.95
2023-02-19T09:34:39.019Z,10.13
2023-02-19T09:37:40.494Z,9.92
2023-02-19T09:40:42.070Z,9.85
2023-02-19T09:43:43.866Z,9.95
2023-02-19T09:46:48.726Z,10.21
2023-02-19T09:49:57.152Z,10.47
2023-02-19T09:53:03.721Z,10.28
2023-02-19T09:56:05.723Z,10.31
2023-02-19T09:59:17.484Z,10.33
2023-02-19T10:02:24.357Z,10.48
2023-02-19T10:05:26.688Z,10.54
2023-02-19T10:08:32.453Z,10.63
2023-02-19T10:11:33.937Z,10.55
2023-02-19T10:14:48.316Z,10.41
2023-02-19T10:17:49.718Z,10.40
2023-02-19T10:20:52.652Z,10.43
2023-02-19T10:24:00.025Z,10.06
2023-02-19T10:27:01.634Z,10.30
2023-02-19T10:30:03.371Z,10.43
2023-02-19T10:33:14.313Z,10.58
2023-02-19T10:36:24.823Z,10.67
2023-02-19T10:39:40.107Z,10.43
2023-02-19T10:42:46.677Z,10.66
2023-02-19T10:45:50.379Z,10.63
2023-02-19T10:48:57.161Z,10.74
2023-02-19T10:52:02.795Z,10.82
2023-02-19T10:55:24.414Z,11.06
2023-02-19T10:58:27.618Z,11.14
2023-02-19T11:01:29.198Z,11.17
2023-02-19T11:04:35.227Z,11.24
2023-02-19T11:07:39.063Z,11.09
2023-02-19T11:10:44.823Z,11.06
2023-02-19T11:13:46.231Z,11.31
2023-02-19T11:16:56.982Z,11.40
2023-02-19T11:20:05.508Z,11.09
2023-02-19T11:23:17.016Z,11.25
2023-02-19T11:26:21.639Z,11.43
2023-02-19T11:29:24.594Z,11.19
2023-02-19T11:32:29.676Z,10.90
2023-02-19T11:35:31.111Z,10.92
2023-02-19T11:38:32.517Z,10.84
2023-02-19T11:41:50.570Z,10.80
2023-02-19T11:45:10.852Z,10.43
2023-02-19T11:48:32.680Z,10.87
2023-02-19T11:52:13.420Z,10.73
2023-02-19T11:55:26.861Z,10.73
2023-02-19T11:58:37.341Z,10.96
2023-02-19T12:02:07.743Z,10.71
2023-02-19T12:06:00.591Z,10.94
2023-02-19T12:09:28.795Z,11.12
2023-02-19T12:12:42.955Z,11.09
2023-02-19T12:15:51.196Z,11.18
2023-02-19T12:19:17.499Z,10.99
2023-02-19T12:22:33.952Z,10.99
2023-02-19T12:25:56.603Z,10.98
2023-02-19T12:29:13.223Z,11.10
2023-02-19T12:32:39.966Z,10.55
2023-02-19T12:35:53.162Z,10.77
2023-02-19T12:39:31.620Z,10.88
2023-02-19T12:43:01.716Z,11.27
2023-02-19T12:46:09.808Z,11.13
2023-02-19T12:49:19.119Z,11.37
2023-02-19T12:52:28.255Z,11.34
2023-02-19T12:55:39.220Z,11.03
2023-02-19T12:58:46.508Z,11.27
2023-02-19T13:02:19.274Z,11.37
2023-02-19T13:05:32.667Z,11.87
2023-02-19T13:09:05.730Z,11.95
2023-02-19T13:12:38.067Z,11.70
2023-02-19T13:15:42.224Z,11.51
2023-02-19T13:18:50.868Z,11.88
2023-02-19T13:22:21.725Z,11.98
2023-02-19T13:25:33.152Z,12.17
2023-02-19T13:28:59.384Z,12.10
2023-02-19T13:32:40.453Z,11.80
2023-02-19T13:35:56.970Z,11.67
2023-02-19T13:38:59.547Z,11.97
2023-02-19T13:42:01.724Z,11.91
2023-02-19T13:45:06.341Z,11.67
2023-02-19T13:48:24.757Z,11.80
2023-02-19T13:51:29.214Z,11.97
2023-02-19T13:54:37.175Z,11.27
2023-02-19T13:57:39.305Z,11.48
2023-02-19T14:00:51.928Z,11.65
2023-02-19T14:04:06.449Z,11.77
2023-02-19T14:07:07.838Z,11.94
2023-02-19T14:10:14.041Z,11.66
2023-02-19T14:13:50.648Z,11.72
2023-02-19T14:16:56.817Z,11.52
2023-02-19T14:20:50.911Z,11.49
2023-02-19T14:23:55.949Z,11.51
2023-02-19T14:26:57.695Z,11.68
2023-02-19T14:29:59.903Z,11.58
2023-02-19T14:33:10.495Z,11.74
2023-02-19T14:36:44.007Z,11.72
2023-02-19T14:39:47.033Z,11.79
2023-02-19T14:42:51.464Z,11.84
2023-02-19T14:45:57.770Z,11.65
2023-02-19T14:49:15.051Z,11.59
2023-02-19T14:52:21.960Z,11.39
2023-02-19T14:55:32.642Z,11.50
2023-02-19T14:58:36.908Z,11.34
2023-02-19T15:01:39.246Z,11.49
2023-02-19T15:04:40.790Z,11.35
2023-02-19T15:07:42.733Z,11.39
2023-02-19T15:10:44.874Z,11.71
2023-02-19T15:13:56.133Z,11.63
2023-02-19T15:17:03.967Z,11.67
2023-02-19T15:20:16.430Z,11.54
2023-02-19T15:23:22.938Z,11.52
2023-02-19T15:26:33.230Z,11.67
2023-02-19T15:29:37.118Z,11.49
2023-02-19T15:32:38.591Z,11.21
2023-02-19T15:35:40.111Z,11.34
2023-02-19T15:38:41.665Z,11.25
2023-02-19T15:41:44.591Z,11.14
2023-02-19T15:44:55.087Z,11.23
2023-02-19T15:48:03.379Z,11.19
2023-02-19T15:51:11.260Z,11.35
2023-02-19T15:54:39.859Z,11.35
2023-02-19T15:57:45.718Z,11.39
2023-02-19T16:00:50.305Z,11.33
2023-02-19T16:03:54.067Z,11.35
2023-02-19T16:07:01.403Z,11.39
2023-02-19T16:10:20.894Z,11.08
2023-02-19T16:13:24.405Z,11.35
2023-02-19T16:16:30.530Z,11.35
2023-02-19T16:19:44.051Z,11.24
2023-02-19T16:22:45.821Z,11.27
2023-02-19T16:25:48.191Z,11.27
2023-02-19T16:28:51.441Z,11.28
2023-02-19T16:32:02.325Z,11.14
2023-02-19T16:35:04.304Z,11.08
2023-02-19T16:38:16.846Z,11.06
2023-02-19T16:41:18.387Z,11.02
2023-02-19T16:44:38.855Z,10.82
2023-02-19T16:47:44.885Z,10.71
2023-02-19T16:50:46.277Z,10.87
2023-02-19T16:53:47.715Z,10.77
2023-02-19T16:56:49.135Z,10.87
2023-02-19T16:59:50.642Z,10.95
2023-02-19T17:02:55.285Z,10.93
2023-02-19T17:05:56.777Z,10.88
2023-02-19T17:08:58.953Z,10.75
2023-02-19T17:12:00.454Z,10.87
2023-02-19T17:15:01.895Z,10.72
2023-02-19T17:18:03.437Z,10.79
2023-02-19T17:21:14.213Z,10.67
2023-02-19T17:24:15.648Z,10.59
2023-02-19T17:27:17.275Z,10.65
2023-02-19T17:30:40.421Z,10.63
2023-02-19T17:33:42.876Z,10.43
2023-02-19T17:36:45.466Z,10.65
2023-02-19T17:39:46.975Z,10.54
2023-02-19T17:42:48.502Z,10.69
2023-02-19T17:45:50.918Z,10.69
2023-02-19T17:48:53.003Z,10.54
2023-02-19T17:51:54.418Z,10.51
2023-02-19T17:54:55.833Z,10.63
2023-02-19T17:57:57.343Z,10.75
2023-02-19T18:00:59.046Z,10.70
2023-02-19T18:04:00.722Z,10.61
2023-02-19T18:07:02.844Z,10.62
2023-02-19T18:10:06.102Z,10.62
2023-02-19T18:13:09.338Z,10.32
2023-02-19T18:16:11.178Z,10.38
2023-02-19T18:19:12.741Z,10.50
2023-02-19T18:22:14.179Z,10.43
2023-02-19T18:25:17.072Z,10.42
2023-02-19T18:28:18.604Z,10.37
2023-02-19T18:31:20.145Z,10.34
2023-02-19T18:34:21.962Z,10.30
2023-02-19T18:37:25.108Z,10.26
2023-02-19T18:40:26.695Z,10.18
2023-02-19T18:43:28.142Z,10.24
2023-02-19T18:46:32.252Z,10.34
2023-02-19T18:49:33.928Z,10.28
2023-02-19T18:52:35.382Z,10.43
2023-02-19T18:55:36.996Z,10.34
2023-02-19T18:58:38.393Z,10.31
2023-02-19T19:01:39.880Z,10.23
2023-02-19T19:04:42.992Z,10.26
2023-02-19T19:07:44.455Z,10.30
2023-02-19T19:10:45.887Z,10.31
2023-02-19T19:13:47.356Z,10.20
2023-02-19T19:16:49.342Z,10.32
2023-02-19T19:19:50.773Z,10.29
2023-02-19T19:22:52.951Z,10.15
2023-02-19T19:25:54.707Z,10.23
2023-02-19T19:28:56.190Z,10.22
2023-02-19T19:31:57.786Z,10.19
2023-02-19T19:34:59.442Z,10.24
2023-02-19T19:38:00.895Z,10.25
2023-02-19T19:41:02.383Z,10.18
2023-02-19T19:44:05.321Z,10.12
2023-02-19T19:47:06.792Z,9.92
2023-02-19T19:50:09.439Z,9.88
2023-02-19T19:53:10.892Z,9.93
2023-02-19T19:56:12.408Z,9.93
2023-02-19T19:59:15.499Z,9.83
2023-02-19T20:02:17.603Z,10.10
2023-02-19T20:05:19.086Z,10.24
2023-02-19T20:08:21.208Z,10.12
2023-02-19T20:11:23.179Z,9.94
2023-02-19T20:14:25.702Z,9.92
2023-02-19T20:17:28.778Z,9.87
2023-02-19T20:20:30.550Z,9.80
2023-02-19T20:23:32.944Z,9.84
2023-02-19T20:26:34.529Z,9.75
2023-02-19T20:29:36.003Z,9.83
2023-02-19T20:32:37.430Z,9.82
2023-02-19T20:35:38.892Z,9.84
2023-02-19T20:38:43.325Z,9.77
2023-02-19T20:41:49.878Z,9.98
2023-02-19T20:44:51.263Z,9.91
2023-02-19T20:47:52.707Z,9.96
2023-02-19T20:50:59.288Z,9.84
2023-02-19T20:54:00.699Z,9.82
2023-02-19T20:57:04.972Z,9.79
2023-02-19T21:00:08.162Z,9.53
2023-02-19T21:03:11.497Z,9.73
2023-02-19T21:06:13.176Z,9.93
2023-02-19T21:09:14.843Z,9.98
2023-02-19T21:12:16.531Z,9.95
2023-02-19T21:15:18.474Z,9.88
2023-02-19T21:18:19.953Z,9.94
2023-02-19T21:21:25.154Z,9.87
2023-02-19T21:24:26.607Z,9.81
2023-02-19T21:27:28.095Z,9.64
2023-02-19T21:30:29.609Z,9.67
2023-02-19T21:33:31.081Z,9.83
2023-02-19T21:36:32.888Z,9.58
2023-02-19T21:39:34.645Z,9.47
2023-02-19T21:42:36.074Z,9.56
2023-02-19T21:45:37.495Z,9.59
2023-02-19T21:48:38.940Z,9.67
2023-02-19T21:51:43.597Z,9.69
2023-02-19T21:54:45.032Z,9.69
2023-02-19T21:57:46.493Z,9.63
2023-02-19T22:00:47.916Z,9.60
2023-02-19T22:03:49.391Z,9.53
2023-02-19T22:06:54.805Z,9.48
2023-02-19T22:09:56.765Z,9.60
2023-02-19T22:12:58.287Z,9.70
2023-02-19T22:15:59.783Z,9.56
2023-02-19T22:19:01.245Z,9.56
2023-02-19T22:22:03.193Z,9.52
2023-02-19T22:25:04.774Z,9.51
2023-02-19T22:28:07.793Z,9.46
2023-02-19T22:31:09.258Z,9.49
2023-02-19T22:34:11.748Z,9.45
2023-02-19T22:37:13.184Z,9.48
2023-02-19T22:40:14.584Z,9.49
2023-02-19T22:43:19.174Z,9.46
2023-02-19T22:46:23.049Z,9.49
2023-02-19T22:49:24.680Z,9.45
2023-02-19T22:52:27.959Z,9.44
2023-02-19T22:55:29.356Z,9.43
2023-02-19T22:58:30.777Z,9.44
2023-02-19T23:01:32.494Z,9.28
2023-02-19T23:04:33.947Z,9.36
2023-02-19T23:07:35.470Z,9.41
2023-02-19T23:10:36.970Z,9.42
2023-02-19T23:13:41.077Z,9.39
2023-02-19T23:16:42.562Z,9.36
2023-02-19T23:19:44.060Z,9.32
2023-02-19T23:22:45.668Z,9.33
2023-02-19T23:25:47.139Z,9.29
2023-02-19T23:28:48.941Z,9.26
2023-02-19T23:31:50.848Z,9.27
2023-02-19T23:34:52.356Z,9.29
2023-02-19T23:37:55.005Z,9.33
2023-02-19T23:40:56.482Z,9.39
2023-02-19T23:43:57.940Z,9.41
2023-02-19T23:46:59.540Z,9.32
2023-02-19T23:50:00.960Z,9.32
2023-02-19T23:53:02.632Z,9.30
2023-02-19T23:56:04.392Z,9.02
2023-02-19T23:59:06.724Z,9.11
